Time;durP1;ratioP1;P1;durP2;ratioP2;P2;SDS_P1;SDS_P2;PMS_P1;PMS_P2;Temp;Humidity;BMP_temperature;BMP_pressure;BME280_temperature;BME280_humidity;BME280_pressure;Samples;Min_cycle;Max_cycle;Signal;HPM_P1;HPM_P2
2023/03/24 00:01:47;;;;;;;5.53;2.90;;;;;;;;;;5003284;28;20187;-52
2023/03/24 00:04:14;;;;;;;3.20;2.47;;;;;;;;;;5005748;28;20277;-52
2023/03/24 00:06:40;;;;;;;2.00;1.90;;;;;;;;;;5013175;28;20244;-52
2023/03/24 00:09:06;;;;;;;2.77;2.10;;;;;;;;;;5007529;28;20202;-52
2023/03/24 00:11:35;;;;;;;2.63;2.23;;;;;;;;;;5005523;28;20297;-52
2023/03/24 00:14:01;;;;;;;2.40;2.20;;;;;;;;;;5007549;28;20181;-52
2023/03/24 00:16:28;;;;;;;2.60;2.40;;;;;;;;;;5011857;28;20269;-52
2023/03/24 00:18:54;;;;;;;2.73;2.47;;;;;;;;;;5002621;28;20185;-52
2023/03/24 00:21:22;;;;;;;3.13;2.30;;;;;;;;;;5001922;28;20598;-52
2023/03/24 00:23:48;;;;;;;4.03;2.47;;;;;;;;;;5005793;28;20190;-52
2023/03/24 00:26:15;;;;;;;2.27;2.07;;;;;;;;;;5005962;28;20206;-52
2023/03/24 00:28:43;;;;;;;2.47;2.23;;;;;;;;;;5006255;28;20179;-52
2023/03/24 00:31:09;;;;;;;2.40;2.20;;;;;;;;;;5005539;28;20297;-52
2023/03/24 00:33:36;;;;;;;3.27;2.27;;;;;;;;;;5005268;28;20190;-52
2023/03/24 00:36:04;;;;;;;2.47;2.10;;;;;;;;;;5006381;28;20179;-52
2023/03/24 00:38:30;;;;;;;2.63;2.40;;;;;;;;;;5010019;28;20214;-53
2023/03/24 00:40:57;;;;;;;2.37;2.17;;;;;;;;;;5004217;28;20273;-52
2023/03/24 00:43:23;;;;;;;2.03;1.93;;;;;;;;;;5002903;28;20651;-52
2023/03/24 00:45:51;;;;;;;2.47;2.27;;;;;;;;;;5006694;28;20633;-52
2023/03/24 00:48:19;;;;;;;2.60;2.40;;;;;;;;;;5004312;28;20189;-52
2023/03/24 00:50:45;;;;;;;2.23;2.03;;;;;;;;;;5006324;28;20688;-52
2023/03/24 00:53:14;;;;;;;2.97;2.63;;;;;;;;;;5012836;28;21177;-52
2023/03/24 00:55:40;;;;;;;2.27;2.07;;;;;;;;;;5006115;28;20190;-52
2023/03/24 00:58:06;;;;;;;2.33;2.13;;;;;;;;;;5004723;28;20225;-52
2023/03/24 01:00:34;;;;;;;2.27;2.07;;;;;;;;;;5006218;28;20204;-52
2023/03/24 01:03:02;;;;;;;2.10;2.00;;;;;;;;;;5008776;28;20734;-53
2023/03/24 01:05:29;;;;;;;2.10;1.90;;;;;;;;;;5007937;28;20175;-53
2023/03/24 01:07:56;;;;;;;2.60;2.10;;;;;;;;;;5012718;28;20278;-53
2023/03/24 01:10:25;;;;;;;2.80;2.60;;;;;;;;;;5010441;28;20195;-53
2023/03/24 01:12:51;;;;;;;2.37;2.17;;;;;;;;;;5009453;28;20203;-53
2023/03/24 01:15:18;;;;;;;2.90;2.30;;;;;;;;;;5006798;28;20661;-53
2023/03/24 01:17:48;;;;;;;3.00;2.70;;;;;;;;;;5010739;28;20186;-53
2023/03/24 01:20:14;;;;;;;2.60;2.40;;;;;;;;;;5005868;28;20225;-52
2023/03/24 01:22:43;;;;;;;3.60;2.37;;;;;;;;;;5015450;28;20225;-53
2023/03/24 01:25:17;;;;;;;4.10;2.70;;;;;;;;;;5010773;28;20765;-61
2023/03/24 01:27:44;;;;;;;2.57;2.37;;;;;;;;;;5006327;28;20305;-53
2023/03/24 01:30:15;;;;;;;2.63;2.20;;;;;;;;;;5006779;28;20662;-53
2023/03/24 01:32:42;;;;;;;2.60;2.30;;;;;;;;;;5007234;28;20183;-57
2023/03/24 01:35:09;;;;;;;3.53;2.67;;;;;;;;;;5007111;28;20232;-53
2023/03/24 01:37:35;;;;;;;3.13;2.50;;;;;;;;;;5009836;28;20183;-57
2023/03/24 01:40:05;;;;;;;2.40;2.20;;;;;;;;;;5013365;28;20266;-57
2023/03/24 01:42:31;;;;;;;2.47;2.27;;;;;;;;;;5010438;28;20190;-57
2023/03/24 01:45:00;;;;;;;3.13;2.47;;;;;;;;;;5007656;28;20175;-57
2023/03/24 01:47:26;;;;;;;2.03;1.93;;;;;;;;;;5008444;28;20571;-57
2023/03/24 01:49:58;;;;;;;2.53;2.27;;;;;;;;;;5004829;28;20566;-58
2023/03/24 01:52:26;;;;;;;2.73;2.50;;;;;;;;;;5009984;28;20178;-56
2023/03/24 01:54:54;;;;;;;3.17;1.97;;;;;;;;;;5008250;28;20190;-57
2023/03/24 01:57:29;;;;;;;2.73;2.53;;;;;;;;;;5009240;28;20231;-57
2023/03/24 01:59:57;;;;;;;2.40;2.20;;;;;;;;;;5007492;28;20182;-57
2023/03/24 02:02:23;;;;;;;2.47;2.27;;;;;;;;;;5012259;28;20626;-57
2023/03/24 02:04:59;;;;;;;3.80;2.33;;;;;;;;;;5003615;28;20702;-57
2023/03/24 02:07:25;;;;;;;3.13;2.30;;;;;;;;;;5008854;28;20539;-57
2023/03/24 02:09:51;;;;;;;2.70;2.47;;;;;;;;;;5004482;28;20601;-57
2023/03/24 02:12:18;;;;;;;2.47;2.27;;;;;;;;;;5001714;28;20198;-57
2023/03/24 02:14:44;;;;;;;2.57;2.30;;;;;;;;;;5007286;28;20179;-57
2023/03/24 02:17:10;;;;;;;2.67;2.47;;;;;;;;;;5006930;28;20621;-57
2023/03/24 02:20:04;;;;;;;2.10;2.00;;;;;;;;;;5003435;28;20686;-57
2023/03/24 02:22:36;;;;;;;5.03;2.80;;;;;;;;;;4990860;28;20202;-57
2023/03/24 02:25:08;;;;;;;2.60;2.30;;;;;;;;;;5002124;28;20201;-56
2023/03/24 02:27:44;;;;;;;3.03;2.60;;;;;;;;;;5001786;28;20995;-57
2023/03/24 02:30:20;;;;;;;4.20;3.90;;;;;;;;;;5006920;28;20914;-56
2023/03/24 02:33:05;;;;;;;2.50;2.23;;;;;;;;;;5009500;28;20658;-57
2023/03/24 02:35:31;;;;;;;2.97;2.40;;;;;;;;;;5004217;28;20229;-56
2023/03/24 02:38:03;;;;;;;3.77;2.83;;;;;;;;;;5009189;28;20190;-56
2023/03/24 02:40:44;;;;;;;3.27;2.97;;;;;;;;;;5006184;28;20256;-56
2023/03/24 02:43:29;;;;;;;3.00;2.70;;;;;;;;;;5006443;28;20576;-57
2023/03/24 02:46:04;;;;;;;3.20;2.90;;;;;;;;;;5006687;28;20650;-57
2023/03/24 02:48:34;;;;;;;2.83;2.63;;;;;;;;;;5007436;28;20205;-58
2023/03/24 02:51:19;;;;;;;2.80;2.50;;;;;;;;;;5007337;28;20207;-57
2023/03/24 02:53:54;;;;;;;2.60;2.40;;;;;;;;;;5005798;28;20700;-57
2023/03/24 02:56:22;;;;;;;4.47;2.23;;;;;;;;;;5004577;28;20173;-58
2023/03/24 02:58:51;;;;;;;3.20;2.90;;;;;;;;;;5013813;28;20630;-57
2023/03/24 03:01:17;;;;;;;2.67;2.43;;;;;;;;;;5006443;28;20182;-58
2023/03/24 03:03:51;;;;;;;3.50;3.20;;;;;;;;;;5006559;28;20903;-57
2023/03/24 03:06:23;;;;;;;4.53;2.93;;;;;;;;;;5002971;28;20320;-59
2023/03/24 03:08:50;;;;;;;2.87;2.67;;;;;;;;;;5013767;28;20535;-57
2023/03/24 03:11:16;;;;;;;3.43;3.13;;;;;;;;;;5004858;28;20225;-58
2023/03/24 03:14:05;;;;;;;2.77;2.50;;;;;;;;;;5006694;28;21091;-57
2023/03/24 03:16:37;;;;;;;4.30;2.83;;;;;;;;;;5002415;28;20801;-57
2023/03/24 03:19:08;;;;;;;3.20;2.77;;;;;;;;;;5003023;28;20178;-58
2023/03/24 03:21:38;;;;;;;2.83;2.63;;;;;;;;;;5006618;28;20185;-58
2023/03/24 03:24:08;;;;;;;2.80;2.60;;;;;;;;;;5003980;28;20261;-58
2023/03/24 03:26:34;;;;;;;3.07;2.70;;;;;;;;;;5005982;28;20181;-58
2023/03/24 03:29:05;;;;;;;3.77;2.73;;;;;;;;;;5005930;28;20193;-57
2023/03/24 03:31:33;;;;;;;2.90;2.70;;;;;;;;;;5005901;28;20201;-57
2023/03/24 03:34:18;;;;;;;2.60;2.40;;;;;;;;;;5005503;28;20245;-57
2023/03/24 03:36:49;;;;;;;2.83;2.50;;;;;;;;;;5004760;28;20179;-57
2023/03/24 03:39:22;;;;;;;2.70;2.50;;;;;;;;;;5008995;28;20699;-57
2023/03/24 03:41:49;;;;;;;2.80;2.43;;;;;;;;;;5008954;28;20178;-58
2023/03/24 03:44:15;;;;;;;2.50;2.30;;;;;;;;;;5009117;28;20226;-57
2023/03/24 03:46:41;;;;;;;2.70;2.50;;;;;;;;;;5006039;28;20935;-57
2023/03/24 03:49:07;;;;;;;2.67;2.30;;;;;;;;;;5002946;28;20623;-57
2023/03/24 03:51:34;;;;;;;8.47;2.60;;;;;;;;;;5005318;28;20513;-57
2023/03/24 03:54:02;;;;;;;2.93;2.73;;;;;;;;;;5012439;28;20181;-57
2023/03/24 03:56:32;;;;;;;2.93;2.60;;;;;;;;;;5007125;28;20190;-58
2023/03/24 03:58:58;;;;;;;2.57;2.37;;;;;;;;;;5008088;28;20178;-57
2023/03/24 04:01:26;;;;;;;3.73;3.53;;;;;;;;;;5005963;28;20692;-57
2023/03/24 04:03:55;;;;;;;2.80;2.60;;;;;;;;;;5007781;28;20182;-57
2023/03/24 04:06:21;;;;;;;2.60;2.40;;;;;;;;;;5006017;28;20271;-57
2023/03/24 04:08:50;;;;;;;2.50;2.30;;;;;;;;;;5006417;28;20187;-57
2023/03/24 04:11:25;;;;;;;3.17;2.50;;;;;;;;;;5005341;28;20759;-58
2023/03/24 04:13:54;;;;;;;2.50;2.30;;;;;;;;;;5006225;28;20182;-57
2023/03/24 04:16:26;;;;;;;3.83;3.43;;;;;;;;;;5005575;28;20174;-57
2023/03/24 04:18:57;;;;;;;2.73;2.53;;;;;;;;;;5007077;28;20182;-57
2023/03/24 04:21:47;;;;;;;2.90;2.60;;;;;;;;;;5007412;28;20184;-57
2023/03/24 04:24:25;;;;;;;2.70;2.50;;;;;;;;;;5004769;28;20175;-57
2023/03/24 04:26:59;;;;;;;2.77;2.50;;;;;;;;;;5005929;28;20185;-57
2023/03/24 04:29:32;;;;;;;2.80;2.50;;;;;;;;;;5004002;28;20210;-57
2023/03/24 04:32:01;;;;;;;4.13;3.83;;;;;;;;;;5008516;28;20186;-57
2023/03/24 04:34:43;;;;;;;2.63;2.43;;;;;;;;;;5005292;28;20278;-57
2023/03/24 04:37:12;;;;;;;3.13;2.80;;;;;;;;;;5009055;28;20199;-57
2023/03/24 04:39:42;;;;;;;3.37;3.07;;;;;;;;;;5006481;28;20182;-57
2023/03/24 04:42:11;;;;;;;2.63;2.43;;;;;;;;;;5009325;28;20225;-57
2023/03/24 04:44:40;;;;;;;3.57;2.53;;;;;;;;;;5007531;28;20186;-57
2023/03/24 04:47:08;;;;;;;3.23;2.93;;;;;;;;;;5010263;28;20224;-57
2023/03/24 04:49:40;;;;;;;3.00;2.63;;;;;;;;;;5008356;28;21066;-57
2023/03/24 04:52:07;;;;;;;2.50;2.30;;;;;;;;;;5008804;28;20635;-57
2023/03/24 04:54:33;;;;;;;5.43;2.80;;;;;;;;;;5006153;28;20175;-57
2023/03/24 04:57:00;;;;;;;2.73;2.53;;;;;;;;;;5016164;28;20648;-57
2023/03/24 04:59:27;;;;;;;2.80;2.60;;;;;;;;;;5009099;28;20186;-57
2023/03/24 05:01:53;;;;;;;2.60;2.40;;;;;;;;;;5009278;28;20182;-57
2023/03/24 05:04:20;;;;;;;2.70;2.50;;;;;;;;;;5009783;28;20173;-57
2023/03/24 05:06:48;;;;;;;2.87;2.57;;;;;;;;;;5010387;28;20182;-57
2023/03/24 05:09:14;;;;;;;4.20;3.80;;;;;;;;;;5011107;28;20186;-57
2023/03/24 05:11:40;;;;;;;2.63;2.43;;;;;;;;;;5009352;28;20297;-57
2023/03/24 05:14:06;;;;;;;3.73;3.43;;;;;;;;;;5009402;28;20244;-57
2023/03/24 05:16:32;;;;;;;4.37;2.77;;;;;;;;;;5003922;28;20189;-57
2023/03/24 05:18:58;;;;;;;4.40;3.33;;;;;;;;;;5008175;28;20178;-57
2023/03/24 05:21:25;;;;;;;4.83;3.90;;;;;;;;;;5007577;28;20194;-58
2023/03/24 05:23:51;;;;;;;2.73;2.53;;;;;;;;;;5008491;28;20209;-57
2023/03/24 05:26:17;;;;;;;3.63;2.60;;;;;;;;;;5000510;28;20182;-57
2023/03/24 05:28:43;;;;;;;2.63;2.43;;;;;;;;;;5010334;28;20194;-57
2023/03/24 05:31:09;;;;;;;3.90;2.50;;;;;;;;;;5008376;28;20198;-58
2023/03/24 05:33:35;;;;;;;2.80;2.53;;;;;;;;;;5007383;28;20187;-57
2023/03/24 05:36:01;;;;;;;3.00;2.40;;;;;;;;;;5007292;28;20634;-57
2023/03/24 05:38:27;;;;;;;3.17;2.37;;;;;;;;;;5000511;28;20265;-57
2023/03/24 05:40:57;;;;;;;2.60;2.33;;;;;;;;;;5006280;28;20244;-58
2023/03/24 05:43:23;;;;;;;3.43;2.20;;;;;;;;;;5001712;28;20186;-57
2023/03/24 05:45:49;;;;;;;3.43;2.30;;;;;;;;;;5003299;28;20244;-57
2023/03/24 05:48:15;;;;;;;2.63;2.27;;;;;;;;;;5009746;28;20229;-61
2023/03/24 05:50:41;;;;;;;4.43;2.37;;;;;;;;;;5005998;28;20207;-57
2023/03/24 05:53:07;;;;;;;4.40;2.20;;;;;;;;;;5004757;28;20194;-57
2023/03/24 05:55:34;;;;;;;3.87;2.17;;;;;;;;;;5011391;28;20195;-57
2023/03/24 05:58:01;;;;;;;2.67;2.20;;;;;;;;;;5008127;28;20225;-57
2023/03/24 06:00:28;;;;;;;3.83;2.70;;;;;;;;;;5009798;28;20174;-57
2023/03/24 06:02:54;;;;;;;2.60;2.17;;;;;;;;;;5007102;28;20182;-57
2023/03/24 06:05:20;;;;;;;3.80;2.20;;;;;;;;;;5015759;28;20174;-57
2023/03/24 06:07:46;;;;;;;2.30;2.00;;;;;;;;;;5005656;28;20637;-57
2023/03/24 06:10:13;;;;;;;2.00;1.90;;;;;;;;;;5007829;28;20214;-57
2023/03/24 06:12:40;;;;;;;4.00;2.07;;;;;;;;;;5001616;28;20194;-57
2023/03/24 06:15:06;;;;;;;3.73;1.97;;;;;;;;;;5008934;28;20650;-57
2023/03/24 06:17:32;;;;;;;2.63;1.83;;;;;;;;;;5004896;28;20186;-57
2023/03/24 06:20:04;;;;;;;1.97;1.77;;;;;;;;;;5003113;28;20222;-57
2023/03/24 06:22:35;;;;;;;2.17;1.83;;;;;;;;;;5009837;28;21618;-57
2023/03/24 06:25:03;;;;;;;4.23;2.07;;;;;;;;;;5004624;28;20191;-57
2023/03/24 06:27:30;;;;;;;4.33;2.60;;;;;;;;;;5005828;28;20231;-57
2023/03/24 06:29:59;;;;;;;9.57;2.70;;;;;;;;;;5006951;28;20293;-57
2023/03/24 06:32:25;;;;;;;4.73;2.37;;;;;;;;;;5006102;28;20178;-57
2023/03/24 06:34:52;;;;;;;5.00;2.53;;;;;;;;;;5004689;28;20178;-57
2023/03/24 06:37:18;;;;;;;3.43;2.43;;;;;;;;;;5004647;28;20442;-57
2023/03/24 06:39:45;;;;;;;4.17;2.37;;;;;;;;;;5003633;28;20545;-57
2023/03/24 06:42:11;;;;;;;6.77;2.90;;;;;;;;;;5009765;28;20195;-57
2023/03/24 06:44:37;;;;;;;5.80;2.60;;;;;;;;;;5004417;28;20725;-57
2023/03/24 06:47:03;;;;;;;4.53;2.30;;;;;;;;;;5008506;28;20182;-56
2023/03/24 06:49:29;;;;;;;4.90;2.50;;;;;;;;;;5001182;28;22067;-57
2023/03/24 06:51:55;;;;;;;5.27;2.67;;;;;;;;;;5009240;28;20178;-57
2023/03/24 06:54:22;;;;;;;3.07;2.27;;;;;;;;;;5000048;28;20193;-57
2023/03/24 06:56:48;;;;;;;3.70;2.20;;;;;;;;;;5008173;28;20176;-57
2023/03/24 06:59:16;;;;;;;4.77;1.97;;;;;;;;;;5006653;28;20175;-58
2023/03/24 07:01:42;;;;;;;5.23;2.80;;;;;;;;;;5008548;28;20616;-57
2023/03/24 07:04:08;;;;;;;4.33;2.27;;;;;;;;;;5010518;28;20220;-57
2023/03/24 07:06:34;;;;;;;5.72;2.90;;;;;;;;;;5007979;28;20429;-57
2023/03/24 07:09:01;;;;;;;3.23;2.40;;;;;;;;;;5006472;28;20193;-57
2023/03/24 07:11:27;;;;;;;4.13;2.53;;;;;;;;;;5001045;28;20221;-57
2023/03/24 07:13:53;;;;;;;6.23;2.57;;;;;;;;;;5007644;28;20186;-57
2023/03/24 07:16:19;;;;;;;4.60;2.90;;;;;;;;;;5009258;28;20637;-56
2023/03/24 07:18:45;;;;;;;6.17;3.07;;;;;;;;;;5004078;28;20185;-57
2023/03/24 07:21:11;;;;;;;3.53;2.37;;;;;;;;;;5007491;28;20551;-56
2023/03/24 07:23:37;;;;;;;5.87;2.60;;;;;;;;;;5012260;28;20194;-56
2023/03/24 07:26:03;;;;;;;3.67;2.53;;;;;;;;;;5003371;28;20184;-55
2023/03/24 07:28:29;;;;;;;5.97;2.43;;;;;;;;;;5004861;28;20186;-56
2023/03/24 07:30:55;;;;;;;7.73;2.70;;;;;;;;;;5006886;28;20688;-56
2023/03/24 07:33:23;;;;;;;4.30;2.63;;;;;;;;;;5000733;28;20186;-56
2023/03/24 07:35:53;;;;;;;5.43;2.67;;;;;;;;;;5009668;28;20179;-57
2023/03/24 07:38:19;;;;;;;5.87;2.67;;;;;;;;;;5007014;28;20190;-57
2023/03/24 07:40:45;;;;;;;9.17;3.03;;;;;;;;;;5004279;28;20201;-56
2023/03/24 07:43:11;;;;;;;4.13;2.43;;;;;;;;;;5005836;28;20728;-56
2023/03/24 07:45:37;;;;;;;5.10;2.60;;;;;;;;;;4999669;28;20187;-56
2023/03/24 07:48:03;;;;;;;4.20;2.00;;;;;;;;;;5001163;28;20186;-57
2023/03/24 07:50:29;;;;;;;4.17;2.50;;;;;;;;;;4998342;28;20198;-57
2023/03/24 07:52:55;;;;;;;3.03;2.13;;;;;;;;;;5001863;28;20190;-57
2023/03/24 07:55:22;;;;;;;5.27;2.53;;;;;;;;;;5003750;28;20185;-57
2023/03/24 07:57:49;;;;;;;5.30;2.50;;;;;;;;;;5004920;28;20265;-57
2023/03/24 08:00:20;;;;;;;3.97;2.00;;;;;;;;;;5003089;28;20593;-58
2023/03/24 08:02:50;;;;;;;6.80;2.13;;;;;;;;;;5005941;28;20539;-57
2023/03/24 08:05:18;;;;;;;3.63;2.20;;;;;;;;;;5003505;28;20647;-57
2023/03/24 08:07:49;;;;;;;8.93;2.70;;;;;;;;;;5011713;28;20312;-57
2023/03/24 08:10:15;;;;;;;3.23;2.20;;;;;;;;;;5011100;28;20650;-58
2023/03/24 08:12:42;;;;;;;2.43;1.80;;;;;;;;;;5000179;28;21911;-57
2023/03/24 08:15:08;;;;;;;4.07;1.87;;;;;;;;;;5008470;28;20171;-57
2023/03/24 08:17:35;;;;;;;3.67;1.93;;;;;;;;;;5005121;28;20547;-57
2023/03/24 08:20:11;;;;;;;5.13;2.17;;;;;;;;;;5001448;28;20222;-57
2023/03/24 08:22:41;;;;;;;4.17;2.17;;;;;;;;;;5021118;28;20185;-58
2023/03/24 08:25:07;;;;;;;3.10;1.90;;;;;;;;;;5011811;28;20185;-57
2023/03/24 08:27:34;;;;;;;5.53;2.60;;;;;;;;;;5012256;28;20210;-58
2023/03/24 08:30:00;;;;;;;4.30;2.07;;;;;;;;;;5010228;28;20316;-57
2023/03/24 08:32:26;;;;;;;3.83;2.20;;;;;;;;;;5006466;28;20178;-57
2023/03/24 08:34:53;;;;;;;7.53;2.63;;;;;;;;;;5009220;28;20189;-58
2023/03/24 08:37:19;;;;;;;3.90;2.20;;;;;;;;;;5007484;28;20179;-57
2023/03/24 08:39:45;;;;;;;4.20;2.00;;;;;;;;;;5009338;28;20690;-58
2023/03/24 08:42:11;;;;;;;7.67;2.83;;;;;;;;;;5012510;28;20182;-59
2023/03/24 08:44:37;;;;;;;4.50;2.00;;;;;;;;;;5014953;28;20228;-58
2023/03/24 08:47:03;;;;;;;3.03;2.20;;;;;;;;;;5006740;28;20182;-58
2023/03/24 08:49:29;;;;;;;3.73;2.20;;;;;;;;;;5006640;28;20179;-58
2023/03/24 08:51:55;;;;;;;5.43;2.10;;;;;;;;;;5008209;28;20186;-58
2023/03/24 08:54:23;;;;;;;3.73;2.30;;;;;;;;;;5008843;28;20175;-61
2023/03/24 08:56:49;;;;;;;5.30;2.30;;;;;;;;;;5011010;28;20175;-57
2023/03/24 08:59:16;;;;;;;5.50;3.33;;;;;;;;;;5010310;28;20177;-58
2023/03/24 09:01:42;;;;;;;4.67;2.67;;;;;;;;;;5012625;28;20189;-57
2023/03/24 09:04:08;;;;;;;3.20;1.83;;;;;;;;;;5006496;28;20395;-58
2023/03/24 09:06:34;;;;;;;4.73;2.17;;;;;;;;;;5015443;28;20205;-57
2023/03/24 09:09:00;;;;;;;5.97;2.33;;;;;;;;;;5006967;28;20639;-57
2023/03/24 09:11:26;;;;;;;2.83;2.00;;;;;;;;;;5009102;28;20221;-58
2023/03/24 09:13:52;;;;;;;5.63;2.53;;;;;;;;;;5007100;28;20178;-57
2023/03/24 09:16:18;;;;;;;4.43;2.20;;;;;;;;;;5007780;28;20175;-58
2023/03/24 09:18:45;;;;;;;3.63;2.67;;;;;;;;;;5010951;28;20178;-57
2023/03/24 09:21:12;;;;;;;7.13;2.70;;;;;;;;;;5011212;28;20198;-57
2023/03/24 09:23:38;;;;;;;2.87;2.43;;;;;;;;;;5011360;28;20673;-57
2023/03/24 09:26:05;;;;;;;5.60;3.10;;;;;;;;;;5013957;28;20206;-57
2023/03/24 09:28:31;;;;;;;5.57;2.67;;;;;;;;;;5002884;28;20569;-57
2023/03/24 09:31:02;;;;;;;4.43;2.30;;;;;;;;;;5007858;28;20202;-57
2023/03/24 09:33:29;;;;;;;9.83;2.93;;;;;;;;;;5002767;28;20174;-57
2023/03/24 09:35:59;;;;;;;6.07;2.13;;;;;;;;;;5007950;28;20186;-57
2023/03/24 09:38:25;;;;;;;5.23;2.10;;;;;;;;;;5004875;28;20256;-56
2023/03/24 09:41:01;;;;;;;5.03;2.40;;;;;;;;;;5003184;28;20191;-56
2023/03/24 09:43:37;;;;;;;5.47;2.63;;;;;;;;;;5014985;28;20268;-56
2023/03/24 09:46:05;;;;;;;7.63;3.40;;;;;;;;;;5007913;28;20175;-56
2023/03/24 09:48:43;;;;;;;6.83;3.57;;;;;;;;;;5003696;28;20205;-56
2023/03/24 09:51:13;;;;;;;8.43;2.70;;;;;;;;;;5002412;28;20689;-56
2023/03/24 09:53:42;;;;;;;6.77;3.20;;;;;;;;;;5004509;28;20209;-54
2023/03/24 09:56:13;;;;;;;6.67;2.80;;;;;;;;;;5007505;28;20182;-56
2023/03/24 09:58:40;;;;;;;7.37;3.23;;;;;;;;;;5010790;28;20182;-55
2023/03/24 10:01:11;;;;;;;7.67;3.47;;;;;;;;;;5006618;28;20191;-56
2023/03/24 10:03:37;;;;;;;8.10;3.53;;;;;;;;;;5003666;28;20201;-56
2023/03/24 10:06:09;;;;;;;3.80;2.30;;;;;;;;;;5012322;28;20175;-56
2023/03/24 10:08:36;;;;;;;3.93;2.53;;;;;;;;;;5012464;28;20209;-56
2023/03/24 10:11:02;;;;;;;5.60;2.97;;;;;;;;;;5009158;28;20236;-55
2023/03/24 10:13:48;;;;;;;7.43;2.83;;;;;;;;;;5007217;28;20175;-53
2023/03/24 10:16:33;;;;;;;7.70;2.63;;;;;;;;;;5001737;28;20658;-53
2023/03/24 10:19:05;;;;;;;5.50;2.20;;;;;;;;;;5006473;28;20182;-53
2023/03/24 10:21:33;;;;;;;6.37;2.40;;;;;;;;;;5010300;28;20725;-53
2023/03/24 10:24:25;;;;;;;9.60;2.73;;;;;;;;;;5021899;28;20182;-53
2023/03/24 10:26:54;;;;;;;6.43;2.53;;;;;;;;;;4992241;28;20634;-53
2023/03/24 10:29:23;;;;;;;5.23;2.40;;;;;;;;;;5008015;28;20182;-53
2023/03/24 10:32:09;;;;;;;9.10;2.87;;;;;;;;;;5008248;28;20189;-52
2023/03/24 10:34:36;;;;;;;5.73;2.53;;;;;;;;;;5012073;28;20261;-53
2023/03/24 10:37:03;;;;;;;4.77;1.90;;;;;;;;;;5014157;28;20182;-53
2023/03/24 10:39:30;;;;;;;4.87;2.20;;;;;;;;;;5009271;28;20175;-53
2023/03/24 10:41:57;;;;;;;5.13;2.23;;;;;;;;;;5024032;28;20234;-53
2023/03/24 10:44:23;;;;;;;5.33;2.30;;;;;;;;;;5015660;28;20178;-53
2023/03/24 10:47:02;;;;;;;4.27;2.40;;;;;;;;;;5005583;28;20179;-53
2023/03/24 10:49:28;;;;;;;5.00;2.17;;;;;;;;;;5010462;28;20186;-53
2023/03/24 10:52:01;;;;;;;5.63;2.30;;;;;;;;;;5009001;28;20172;-53
2023/03/24 10:54:28;;;;;;;6.60;2.50;;;;;;;;;;5008596;28;20331;-53
2023/03/24 10:56:55;;;;;;;2.13;1.93;;;;;;;;;;5008609;28;20187;-53
2023/03/24 10:59:30;;;;;;;3.47;2.23;;;;;;;;;;5013655;28;20540;-53
2023/03/24 11:02:02;;;;;;;5.00;2.27;;;;;;;;;;5023429;28;20666;-53
2023/03/24 11:04:31;;;;;;;4.63;2.33;;;;;;;;;;5016000;28;20189;-53
2023/03/24 11:07:13;;;;;;;4.77;2.23;;;;;;;;;;5011750;28;20186;-53
2023/03/24 11:09:44;;;;;;;6.33;2.53;;;;;;;;;;5010399;28;20185;-52
2023/03/24 11:12:23;;;;;;;3.97;2.60;;;;;;;;;;5027443;28;20290;-53
2023/03/24 11:14:49;;;;;;;6.10;2.70;;;;;;;;;;5006751;28;20186;-52
2023/03/24 11:17:15;;;;;;;5.93;2.77;;;;;;;;;;5005932;28;20209;-53
2023/03/24 11:19:51;;;;;;;3.37;2.20;;;;;;;;;;5024194;28;20752;-52
2023/03/24 11:22:18;;;;;;;5.70;2.63;;;;;;;;;;5015043;28;20188;-53
2023/03/24 11:24:47;;;;;;;4.03;2.50;;;;;;;;;;4999945;28;20186;-52
2023/03/24 11:27:15;;;;;;;5.83;3.10;;;;;;;;;;5002133;28;20582;-52
2023/03/24 11:29:42;;;;;;;5.93;3.13;;;;;;;;;;5006606;28;20614;-53
2023/03/24 11:32:13;;;;;;;3.43;2.47;;;;;;;;;;5005471;28;20722;-52
2023/03/24 11:34:43;;;;;;;4.10;2.00;;;;;;;;;;5000618;28;20632;-53
2023/03/24 11:37:14;;;;;;;3.33;2.23;;;;;;;;;;5003267;28;20171;-53
2023/03/24 11:39:40;;;;;;;3.80;2.33;;;;;;;;;;5009400;28;20179;-53
2023/03/24 11:42:15;;;;;;;10.20;3.53;;;;;;;;;;5003578;28;20183;-54
2023/03/24 11:44:44;;;;;;;5.20;2.93;;;;;;;;;;5000610;28;20600;-53
2023/03/24 11:47:33;;;;;;;6.17;2.30;;;;;;;;;;5005394;28;20175;-53
2023/03/24 11:50:02;;;;;;;8.73;2.30;;;;;;;;;;5002186;28;20583;-53
2023/03/24 11:52:31;;;;;;;6.70;2.53;;;;;;;;;;5010907;28;20174;-53
2023/03/24 11:54:57;;;;;;;8.13;3.23;;;;;;;;;;5006933;28;20182;-53
2023/03/24 11:57:31;;;;;;;5.13;3.17;;;;;;;;;;5003993;28;20179;-54
2023/03/24 12:00:01;;;;;;;6.97;2.63;;;;;;;;;;5005247;28;20182;-53
2023/03/24 12:02:46;;;;;;;6.50;3.37;;;;;;;;;;5009080;28;20183;-53
2023/03/24 12:05:21;;;;;;;5.30;2.40;;;;;;;;;;5004623;28;20228;-54
2023/03/24 12:08:04;;;;;;;3.03;2.67;;;;;;;;;;5007061;28;20182;-54
2023/03/24 12:10:49;;;;;;;8.03;3.20;;;;;;;;;;5005728;28;20605;-54
2023/03/24 12:13:35;;;;;;;5.47;2.43;;;;;;;;;;5003812;28;20294;-53
2023/03/24 12:16:16;;;;;;;3.97;2.20;;;;;;;;;;4996979;28;20218;-53
2023/03/24 12:18:43;;;;;;;8.70;2.70;;;;;;;;;;5000144;28;20183;-53
2023/03/24 12:21:09;;;;;;;5.10;2.53;;;;;;;;;;5005696;28;20308;-55
2023/03/24 12:23:41;;;;;;;3.67;2.43;;;;;;;;;;5005434;28;20186;-53
2023/03/24 12:26:10;;;;;;;4.83;2.60;;;;;;;;;;5007675;28;20193;-53
2023/03/24 12:28:36;;;;;;;6.33;2.90;;;;;;;;;;5003735;28;20191;-53
2023/03/24 12:31:21;;;;;;;5.77;2.47;;;;;;;;;;5001319;28;20211;-53
2023/03/24 12:34:06;;;;;;;4.90;2.97;;;;;;;;;;5004399;28;20538;-54
2023/03/24 12:36:55;;;;;;;6.97;2.50;;;;;;;;;;5001904;28;20270;-53
2023/03/24 12:39:28;;;;;;;7.33;2.80;;;;;;;;;;4990199;28;20249;-54
2023/03/24 12:42:03;;;;;;;5.80;2.83;;;;;;;;;;5004161;28;20183;-53
2023/03/24 12:44:32;;;;;;;5.90;2.77;;;;;;;;;;5000952;28;20182;-53
2023/03/24 12:47:12;;;;;;;6.43;2.63;;;;;;;;;;5010970;28;20560;-53
2023/03/24 12:49:41;;;;;;;5.77;2.47;;;;;;;;;;5002034;28;20185;-53
2023/03/24 12:52:33;;;;;;;5.30;2.50;;;;;;;;;;5002678;28;20188;-53
2023/03/24 12:55:24;;;;;;;4.90;2.37;;;;;;;;;;5004011;28;20179;-53
2023/03/24 12:57:54;;;;;;;3.97;2.53;;;;;;;;;;4998008;28;20183;-52
2023/03/24 13:00:20;;;;;;;5.73;2.30;;;;;;;;;;4999674;28;20187;-53
2023/03/24 13:02:55;;;;;;;2.20;2.00;;;;;;;;;;5007634;28;20191;-53
2023/03/24 13:05:29;;;;;;;4.93;3.20;;;;;;;;;;5006900;28;20183;-52
2023/03/24 13:07:57;;;;;;;4.63;2.43;;;;;;;;;;4996901;28;20230;-53
2023/03/24 13:10:28;;;;;;;4.13;2.27;;;;;;;;;;5008394;28;20209;-53
2023/03/24 13:12:54;;;;;;;4.27;2.40;;;;;;;;;;4995876;28;20223;-53
2023/03/24 13:15:20;;;;;;;4.93;2.37;;;;;;;;;;4998005;28;20913;-53
2023/03/24 13:17:57;;;;;;;7.50;3.10;;;;;;;;;;4998398;28;20195;-53
2023/03/24 13:20:29;;;;;;;6.87;3.10;;;;;;;;;;5004309;28;20594;-53
2023/03/24 13:22:56;;;;;;;6.37;2.67;;;;;;;;;;5007544;28;20657;-53
2023/03/24 13:25:31;;;;;;;6.97;3.40;;;;;;;;;;5007043;28;20179;-54
2023/03/24 13:27:59;;;;;;;8.00;2.63;;;;;;;;;;5003509;28;20277;-53
2023/03/24 13:30:31;;;;;;;2.90;2.20;;;;;;;;;;5005976;28;20712;-53
2023/03/24 13:33:07;;;;;;;4.70;3.07;;;;;;;;;;5006609;28;20180;-53
2023/03/24 13:35:39;;;;;;;5.50;2.80;;;;;;;;;;5003180;28;20358;-53
2023/03/24 13:38:24;;;;;;;3.67;2.57;;;;;;;;;;5003185;28;20225;-53
2023/03/24 13:40:51;;;;;;;4.80;3.53;;;;;;;;;;5007002;28;20697;-53
2023/03/24 13:43:20;;;;;;;4.17;2.77;;;;;;;;;;5008658;28;20433;-53
2023/03/24 13:45:49;;;;;;;6.47;3.60;;;;;;;;;;5000150;28;21013;-53
2023/03/24 13:48:18;;;;;;;5.43;2.37;;;;;;;;;;5006358;28;20183;-53
2023/03/24 13:50:57;;;;;;;7.53;3.30;;;;;;;;;;5005262;28;20281;-53
2023/03/24 13:53:30;;;;;;;4.73;3.13;;;;;;;;;;5006238;28;20182;-52
2023/03/24 13:55:56;;;;;;;4.83;2.90;;;;;;;;;;5010674;28;20190;-53
2023/03/24 13:58:25;;;;;;;6.60;2.97;;;;;;;;;;5004169;28;20733;-53
2023/03/24 14:01:09;;;;;;;7.40;3.07;;;;;;;;;;5009037;28;21014;-53
2023/03/24 14:03:38;;;;;;;4.17;3.07;;;;;;;;;;5001328;28;20186;-52
2023/03/24 14:06:05;;;;;;;6.53;3.20;;;;;;;;;;5005757;28;20186;-52
2023/03/24 14:08:44;;;;;;;5.33;2.97;;;;;;;;;;4995106;28;20202;-52
2023/03/24 14:11:33;;;;;;;6.27;2.70;;;;;;;;;;4990911;28;20221;-53
2023/03/24 14:14:06;;;;;;;5.10;2.90;;;;;;;;;;4996742;28;20217;-52
2023/03/24 14:16:33;;;;;;;3.97;2.40;;;;;;;;;;5004526;28;20641;-52
2023/03/24 14:19:17;;;;;;;4.17;2.77;;;;;;;;;;4999957;28;20305;-53
2023/03/24 14:21:44;;;;;;;7.60;2.23;;;;;;;;;;4997447;28;21863;-53
2023/03/24 14:24:21;;;;;;;3.73;2.30;;;;;;;;;;5001143;28;20182;-52
2023/03/24 14:26:47;;;;;;;2.73;2.17;;;;;;;;;;4998001;28;20232;-52
2023/03/24 14:29:46;;;;;;;2.43;1.80;;;;;;;;;;5000350;28;20764;-52
2023/03/24 14:32:16;;;;;;;2.90;2.10;;;;;;;;;;5001193;28;20193;-53
2023/03/24 14:34:49;;;;;;;2.23;2.00;;;;;;;;;;5001880;28;22009;-53
2023/03/24 14:37:16;;;;;;;1.73;1.63;;;;;;;;;;5007029;28;20190;-52
2023/03/24 14:39:48;;;;;;;3.07;1.90;;;;;;;;;;4997752;28;20268;-52
2023/03/24 14:42:32;;;;;;;4.83;2.07;;;;;;;;;;5001391;28;20193;-53
2023/03/24 14:45:03;;;;;;;3.67;2.27;;;;;;;;;;5002490;28;20175;-53
2023/03/24 14:47:31;;;;;;;5.80;2.47;;;;;;;;;;5008888;28;20212;-52
2023/03/24 14:49:58;;;;;;;3.57;2.30;;;;;;;;;;5001727;28;20218;-53
2023/03/24 14:52:28;;;;;;;2.90;2.10;;;;;;;;;;4999696;28;20263;-53
2023/03/24 14:54:56;;;;;;;3.80;1.80;;;;;;;;;;5003903;28;20213;-53
2023/03/24 14:57:22;;;;;;;3.37;2.10;;;;;;;;;;5007983;28;20170;-52
2023/03/24 14:59:52;;;;;;;3.93;3.13;;;;;;;;;;5002341;28;20179;-53